createdAt,value
2018-08-20T00:02:28.468Z,19.97
2018-08-20T00:04:59.142Z,19.99
2018-08-20T00:07:26.575Z,20.00
2018-08-20T00:09:54.721Z,20.02
2018-08-20T00:12:22.109Z,19.99
2018-08-20T00:14:49.532Z,20.00
2018-08-20T00:17:17.111Z,20.01
2018-08-20T00:19:44.933Z,20.03
2018-08-20T00:22:12.395Z,19.98
2018-08-20T00:24:40.179Z,20.04
2018-08-20T00:27:07.787Z,20.06
2018-08-20T00:29:37.673Z,20.11
2018-08-20T00:32:06.239Z,20.09
2018-08-20T00:34:33.704Z,20.10
2018-08-20T00:37:01.074Z,20.13
2018-08-20T00:39:28.422Z,20.02
2018-08-20T00:41:57.219Z,20.16
2018-08-20T00:44:24.599Z,20.12
2018-08-20T00:46:52.049Z,20.10
2018-08-20T00:49:19.414Z,20.12
2018-08-20T00:51:46.732Z,20.06
2018-08-20T00:54:14.245Z,20.05
2018-08-20T00:56:41.672Z,20.00
2018-08-20T00:59:09.203Z,19.96
2018-08-20T01:01:36.822Z,19.98
2018-08-20T01:04:04.395Z,20.00
2018-08-20T01:06:31.985Z,19.98
2018-08-20T01:08:59.852Z,19.99
2018-08-20T01:11:27.427Z,19.93
2018-08-20T01:13:54.970Z,20.03
2018-08-20T01:16:22.338Z,19.97
2018-08-20T01:18:49.788Z,19.96
2018-08-20T01:21:18.379Z,19.93
2018-08-20T01:23:45.857Z,20.00
2018-08-20T01:26:13.185Z,19.98
2018-08-20T01:28:40.616Z,19.98
2018-08-20T01:31:08.323Z,20.06
2018-08-20T01:33:36.078Z,20.02
2018-08-20T01:36:03.814Z,20.08
2018-08-20T01:38:31.389Z,20.02
2018-08-20T01:40:59.199Z,19.93
2018-08-20T01:43:27.262Z,19.94
2018-08-20T01:45:54.627Z,20.01
2018-08-20T01:48:22.015Z,20.05
2018-08-20T01:50:49.783Z,20.08
2018-08-20T01:53:17.411Z,20.12
2018-08-20T01:55:44.932Z,20.10
2018-08-20T01:58:12.312Z,20.02
2018-08-20T02:00:39.701Z,20.11
2018-08-20T02:03:07.234Z,20.09
2018-08-20T02:05:34.673Z,20.09
2018-08-20T02:08:02.155Z,20.11
2018-08-20T02:10:29.862Z,20.13
2018-08-20T02:12:57.289Z,20.15
2018-08-20T02:15:25.359Z,20.03
2018-08-20T02:17:52.841Z,20.13
2018-08-20T02:20:20.203Z,20.17
2018-08-20T02:22:47.551Z,20.26
2018-08-20T02:25:14.892Z,20.27
2018-08-20T02:27:42.250Z,20.15
2018-08-20T02:30:10.448Z,20.17
2018-08-20T02:32:38.085Z,20.06
2018-08-20T02:35:05.966Z,20.11
2018-08-20T02:37:40.464Z,20.07
2018-08-20T02:40:07.952Z,20.10
2018-08-20T02:42:35.924Z,20.17
2018-08-20T02:45:04.112Z,20.09
2018-08-20T02:47:31.491Z,20.12
2018-08-20T02:49:58.881Z,20.07
2018-08-20T02:52:26.270Z,20.09
2018-08-20T02:54:53.680Z,20.13
2018-08-20T02:57:21.043Z,20.13
2018-08-20T02:59:48.475Z,20.14
2018-08-20T03:02:15.856Z,20.16
2018-08-20T03:04:43.300Z,20.06
2018-08-20T03:07:10.740Z,20.04
2018-08-20T03:09:38.137Z,20.00
2018-08-20T03:12:05.567Z,19.97
2018-08-20T03:14:33.050Z,19.99
2018-08-20T03:17:01.252Z,19.89
2018-08-20T03:19:28.685Z,19.95
2018-08-20T03:21:56.028Z,19.86
2018-08-20T03:24:23.434Z,19.96
2018-08-20T03:26:50.860Z,20.00
2018-08-20T03:29:18.195Z,19.98
2018-08-20T03:31:45.624Z,19.88
2018-08-20T03:34:13.059Z,19.84
2018-08-20T03:36:40.469Z,19.79
2018-08-20T03:39:07.984Z,19.78
2018-08-20T03:41:35.379Z,19.79
2018-08-20T03:44:02.854Z,19.69
2018-08-20T03:46:30.257Z,19.61
2018-08-20T03:48:57.674Z,19.72
2018-08-20T03:51:25.162Z,19.67
2018-08-20T03:53:52.583Z,19.70
2018-08-20T03:56:19.959Z,19.57
2018-08-20T03:58:47.313Z,19.61
2018-08-20T04:01:14.764Z,19.62
2018-08-20T04:03:42.288Z,19.70
2018-08-20T04:06:09.928Z,19.66
2018-08-20T04:08:37.233Z,19.56
2018-08-20T04:11:04.910Z,19.55
2018-08-20T04:13:32.370Z,19.68
2018-08-20T04:15:59.719Z,19.70
2018-08-20T04:18:27.271Z,19.74
2018-08-20T04:20:54.635Z,19.71
2018-08-20T04:23:28.811Z,19.59
2018-08-20T04:25:56.191Z,19.71
2018-08-20T04:28:23.527Z,19.61
2018-08-20T04:30:50.905Z,19.57
2018-08-20T04:33:18.305Z,19.59
2018-08-20T04:35:45.800Z,19.63
2018-08-20T04:38:13.302Z,19.64
2018-08-20T04:40:40.744Z,19.54
2018-08-20T04:43:08.233Z,19.55
2018-08-20T04:45:35.693Z,19.45
2018-08-20T04:48:03.104Z,19.45
2018-08-20T04:50:30.717Z,19.49
2018-08-20T04:52:57.860Z,19.52
2018-08-20T04:55:25.130Z,19.58
2018-08-20T04:57:52.532Z,19.46
2018-08-20T05:00:19.879Z,19.52
2018-08-20T05:02:48.690Z,19.41
2018-08-20T05:05:16.777Z,19.44
2018-08-20T05:07:44.822Z,19.30
2018-08-20T05:10:12.206Z,19.40
2018-08-20T05:12:39.667Z,19.43
2018-08-20T05:15:07.481Z,19.52
2018-08-20T05:17:34.781Z,19.49
2018-08-20T05:20:02.270Z,19.44
2018-08-20T05:22:29.923Z,19.47
2018-08-20T05:24:57.256Z,19.42
2018-08-20T05:27:25.661Z,19.45
2018-08-20T05:29:52.903Z,19.44
2018-08-20T05:32:20.334Z,19.35
2018-08-20T05:34:48.412Z,19.24
2018-08-20T05:37:15.826Z,19.23
2018-08-20T05:39:43.163Z,19.31
2018-08-20T05:42:10.544Z,19.29
2018-08-20T05:44:37.985Z,19.26
2018-08-20T05:47:05.500Z,19.32
2018-08-20T05:49:32.933Z,19.33
2018-08-20T05:52:01.101Z,19.41
2018-08-20T05:54:29.421Z,19.38
2018-08-20T05:56:56.859Z,19.35
2018-08-20T05:59:24.224Z,19.42
2018-08-20T06:01:51.667Z,19.31
2018-08-20T06:04:19.229Z,19.57
2018-08-20T06:06:46.620Z,19.37
2018-08-20T06:09:13.950Z,19.52
2018-08-20T06:11:41.418Z,19.47
2018-08-20T06:14:08.729Z,19.50
2018-08-20T06:16:36.068Z,19.59
2018-08-20T06:19:03.630Z,19.57
2018-08-20T06:21:31.886Z,19.37
2018-08-20T06:23:59.297Z,19.39
2018-08-20T06:26:26.609Z,19.58
2018-08-20T06:28:53.978Z,19.58
2018-08-20T06:31:21.320Z,19.71
2018-08-20T06:33:49.147Z,19.66
2018-08-20T06:36:16.519Z,19.78
2018-08-20T06:38:43.903Z,19.64
2018-08-20T06:41:11.259Z,19.75
2018-08-20T06:43:38.590Z,19.66
2018-08-20T06:46:05.947Z,19.77
2018-08-20T06:48:33.341Z,19.77
2018-08-20T06:51:00.734Z,19.93
2018-08-20T06:53:28.155Z,19.85
2018-08-20T06:55:55.643Z,19.88
2018-08-20T06:58:23.171Z,20.00
2018-08-20T07:00:50.709Z,19.77
2018-08-20T07:03:18.251Z,19.87
2018-08-20T07:05:45.667Z,19.83
2018-08-20T07:08:13.326Z,19.91
2018-08-20T07:10:45.988Z,19.87
2018-08-20T07:13:25.687Z,19.64
2018-08-20T07:15:53.300Z,19.89
2018-08-20T07:18:20.803Z,19.96
2018-08-20T07:20:48.130Z,20.02
2018-08-20T07:23:15.431Z,20.00
2018-08-20T07:25:43.981Z,19.90
2018-08-20T07:28:11.636Z,20.01
2018-08-20T07:30:38.964Z,19.83
2018-08-20T07:33:06.326Z,20.05
2018-08-20T07:35:33.674Z,19.86
2018-08-20T07:38:01.196Z,19.98
2018-08-20T07:40:28.580Z,20.09
2018-08-20T07:42:56.171Z,20.13
2018-08-20T07:45:23.578Z,20.14
2018-08-20T07:47:50.935Z,20.37
2018-08-20T07:50:18.335Z,20.40
2018-08-20T07:52:45.619Z,20.24
2018-08-20T07:55:13.969Z,20.28
2018-08-20T07:57:41.496Z,19.96
2018-08-20T08:00:09.387Z,20.12
2018-08-20T08:02:37.707Z,20.31
2018-08-20T08:05:06.451Z,20.33
2018-08-20T08:07:34.090Z,20.27
2018-08-20T08:10:01.410Z,20.56
2018-08-20T08:12:29.018Z,20.34
2018-08-20T08:14:57.313Z,20.55
2018-08-20T08:17:25.339Z,20.45
2018-08-20T08:19:52.769Z,20.38
2018-08-20T08:22:20.223Z,20.34
2018-08-20T08:24:47.618Z,20.25
2018-08-20T08:27:14.940Z,20.16
2018-08-20T08:29:42.317Z,20.27
2018-08-20T08:32:09.732Z,20.47
2018-08-20T08:34:37.157Z,20.79
2018-08-20T08:37:05.211Z,20.89
2018-08-20T08:39:32.593Z,20.79
2018-08-20T08:42:00.547Z,20.75
2018-08-20T08:44:27.999Z,20.70
2018-08-20T08:46:55.373Z,20.88
2018-08-20T08:49:22.835Z,20.63
2018-08-20T08:51:50.188Z,20.35
2018-08-20T08:54:17.649Z,20.70
2018-08-20T08:56:45.020Z,20.76
2018-08-20T08:59:12.718Z,20.83
2018-08-20T09:01:40.078Z,21.36
2018-08-20T09:04:07.475Z,21.15
2018-08-20T09:06:34.835Z,20.96
2018-08-20T09:09:02.303Z,20.93
2018-08-20T09:11:29.882Z,20.99
2018-08-20T09:13:57.347Z,21.06
2018-08-20T09:16:24.776Z,21.27
2018-08-20T09:18:52.287Z,21.34
2018-08-20T09:21:19.712Z,21.53
2018-08-20T09:23:47.103Z,21.75
2018-08-20T09:26:14.571Z,21.51
2018-08-20T09:28:41.945Z,21.42
2018-08-20T09:31:09.350Z,21.77
2018-08-20T09:33:36.670Z,21.81
2018-08-20T09:36:04.073Z,21.88
2018-08-20T09:38:32.002Z,21.76
2018-08-20T09:40:59.379Z,21.40
2018-08-20T09:43:26.722Z,22.05
2018-08-20T09:45:54.207Z,21.61
2018-08-20T09:48:21.625Z,21.61
2018-08-20T09:50:49.065Z,21.70
2018-08-20T09:53:16.422Z,21.80
2018-08-20T09:55:43.813Z,21.58
2018-08-20T09:58:11.365Z,21.59
2018-08-20T10:00:39.227Z,21.50
2018-08-20T10:03:07.142Z,21.77
2018-08-20T10:05:34.550Z,21.84
2018-08-20T10:08:01.862Z,21.71
2018-08-20T10:10:29.446Z,21.96
2018-08-20T10:12:56.825Z,21.82
2018-08-20T10:15:24.158Z,21.93
2018-08-20T10:17:51.675Z,21.67
2018-08-20T10:20:19.298Z,21.68
2018-08-20T10:22:46.621Z,21.86
2018-08-20T10:25:14.845Z,22.25
2018-08-20T10:27:42.337Z,22.30
2018-08-20T10:30:10.631Z,22.04
2018-08-20T10:32:37.985Z,22.51
2018-08-20T10:35:05.920Z,22.17
2018-08-20T10:37:34.082Z,22.33
2018-08-20T10:40:01.577Z,22.59
2018-08-20T10:42:28.963Z,22.96
2018-08-20T10:45:01.957Z,22.13
2018-08-20T10:47:29.233Z,22.70
2018-08-20T10:49:56.584Z,22.70
2018-08-20T10:52:24.007Z,22.60
2018-08-20T10:54:51.360Z,23.25
2018-08-20T10:57:18.751Z,23.64
2018-08-20T10:59:46.019Z,24.16
2018-08-20T11:02:13.401Z,23.82
2018-08-20T11:04:40.691Z,23.44
2018-08-20T11:07:08.107Z,24.80
2018-08-20T11:09:35.565Z,24.73
2018-08-20T11:12:03.733Z,23.77
2018-08-20T11:14:31.156Z,24.34
2018-08-20T11:16:58.581Z,24.96
2018-08-20T11:19:26.097Z,25.48
2018-08-20T11:21:53.565Z,24.74
2018-08-20T11:24:20.878Z,24.89
2018-08-20T11:26:48.878Z,25.34
2018-08-20T11:29:16.537Z,26.31
2018-08-20T11:31:43.858Z,25.00
2018-08-20T11:34:11.132Z,25.46
2018-08-20T11:36:38.577Z,26.10
2018-08-20T11:39:06.358Z,26.20
2018-08-20T11:41:33.746Z,26.51
2018-08-20T11:44:01.091Z,25.84
2018-08-20T11:46:28.458Z,26.45
2018-08-20T11:48:55.734Z,25.89
2018-08-20T11:51:23.493Z,26.79
2018-08-20T11:53:50.918Z,30.31
2018-08-20T11:56:18.344Z,30.64
2018-08-20T11:58:45.683Z,31.27
2018-08-20T12:01:13.085Z,30.25
2018-08-20T12:03:41.298Z,33.00
2018-08-20T12:06:08.900Z,29.92
2018-08-20T12:08:36.378Z,27.20
2018-08-20T12:11:03.730Z,31.72
2018-08-20T12:13:31.121Z,28.81
2018-08-20T12:15:58.502Z,27.70
2018-08-20T12:18:25.882Z,27.97
2018-08-20T12:20:53.157Z,26.25
2018-08-20T12:23:20.618Z,27.52
2018-08-20T12:25:48.538Z,30.39
2018-08-20T12:28:16.002Z,30.32
2018-08-20T12:30:43.197Z,29.80
2018-08-20T12:33:10.579Z,31.01
2018-08-20T12:35:37.919Z,32.02
2018-08-20T12:38:05.172Z,29.94
2018-08-20T12:40:32.594Z,27.48
2018-08-20T12:42:59.794Z,29.40
2018-08-20T12:45:27.770Z,30.09
2018-08-20T12:47:55.132Z,29.79
2018-08-20T12:50:22.626Z,30.11
2018-08-20T12:52:50.047Z,29.21
2018-08-20T12:55:17.327Z,27.90
2018-08-20T12:57:44.583Z,28.83
2018-08-20T13:00:11.880Z,29.48
2018-08-20T13:02:39.128Z,28.86
2018-08-20T13:05:06.555Z,29.23
2018-08-20T13:07:33.767Z,28.78
2018-08-20T13:10:01.129Z,27.68
2018-08-20T13:12:28.442Z,27.93
2018-08-20T13:14:55.734Z,28.25
2018-08-20T13:17:23.071Z,27.79
2018-08-20T13:19:50.621Z,28.61
2018-08-20T13:22:18.668Z,28.25
2018-08-20T13:24:45.996Z,29.28
2018-08-20T13:27:13.306Z,29.24
2018-08-20T13:29:40.686Z,28.39
2018-08-20T13:32:08.717Z,28.77
2018-08-20T13:34:36.173Z,28.61
2018-08-20T13:37:03.449Z,27.99
2018-08-20T13:39:31.379Z,28.33
2018-08-20T13:41:58.670Z,28.20
2018-08-20T13:44:26.012Z,27.00
2018-08-20T13:46:53.466Z,29.02
2018-08-20T13:49:20.797Z,28.57
2018-08-20T13:51:48.214Z,28.60
2018-08-20T13:54:15.533Z,27.94
2018-08-20T13:56:42.884Z,28.66
2018-08-20T13:59:10.280Z,29.70
2018-08-20T14:01:37.584Z,29.05
2018-08-20T14:04:04.908Z,27.90
2018-08-20T14:06:32.189Z,28.40
2018-08-20T14:08:59.607Z,29.44
2018-08-20T14:11:26.870Z,29.46
2018-08-20T14:13:54.216Z,28.92
2018-08-20T14:16:21.592Z,28.60
2018-08-20T14:18:48.911Z,28.38
2018-08-20T14:21:16.679Z,28.96
2018-08-20T14:23:45.710Z,28.06
2018-08-20T14:26:13.221Z,27.49
2018-08-20T14:28:40.677Z,28.17
2018-08-20T14:31:08.281Z,28.45
2018-08-20T14:33:35.662Z,27.28
2018-08-20T14:36:03.107Z,27.37
2018-08-20T14:38:30.657Z,27.28
2018-08-20T14:40:57.981Z,27.83
2018-08-20T14:43:25.363Z,27.88
2018-08-20T14:45:58.341Z,28.19
2018-08-20T14:48:25.854Z,27.94
2018-08-20T14:50:53.159Z,27.02
2018-08-20T14:53:20.558Z,27.72
2018-08-20T14:55:47.893Z,27.43
2018-08-20T14:58:15.198Z,27.00
2018-08-20T15:00:42.567Z,27.07
2018-08-20T15:03:09.794Z,27.20
2018-08-20T15:05:37.140Z,28.23
2018-08-20T15:08:04.377Z,27.69
2018-08-20T15:10:31.665Z,26.62
2018-08-20T15:12:58.978Z,27.18
2018-08-20T15:15:26.507Z,26.62
2018-08-20T15:17:53.786Z,27.24
2018-08-20T15:20:21.165Z,27.46
2018-08-20T15:22:49.933Z,26.95
2018-08-20T15:25:17.738Z,26.68
2018-08-20T15:27:45.203Z,26.45
2018-08-20T15:30:12.617Z,26.93
2018-08-20T15:32:40.000Z,26.83
2018-08-20T15:35:07.221Z,26.66
2018-08-20T15:37:35.399Z,26.35
2018-08-20T15:40:02.764Z,26.46
2018-08-20T15:42:30.101Z,26.42
2018-08-20T15:44:57.461Z,26.51
2018-08-20T15:47:24.790Z,26.73
2018-08-20T15:49:52.171Z,25.84
2018-08-20T15:52:19.721Z,26.02
2018-08-20T15:54:47.012Z,25.71
2018-08-20T15:57:14.281Z,25.82
2018-08-20T15:59:41.658Z,25.61
2018-08-20T16:02:09.177Z,26.39
2018-08-20T16:04:36.467Z,26.21
2018-08-20T16:07:03.789Z,25.77
2018-08-20T16:09:31.151Z,25.86
2018-08-20T16:11:58.452Z,25.90
2018-08-20T16:14:25.741Z,25.31
2018-08-20T16:16:53.046Z,25.03
2018-08-20T16:19:20.399Z,25.51
2018-08-20T16:21:48.023Z,25.35
2018-08-20T16:24:15.352Z,25.20
2018-08-20T16:26:42.779Z,25.25
2018-08-20T16:29:10.039Z,24.99
2018-08-20T16:31:38.263Z,24.40
2018-08-20T16:34:05.609Z,24.81
2018-08-20T16:36:33.801Z,24.09
2018-08-20T16:39:01.452Z,24.43
2018-08-20T16:41:28.825Z,24.08
2018-08-20T16:43:56.457Z,23.83
2018-08-20T16:46:24.346Z,23.26
2018-08-20T16:48:51.869Z,23.63
2018-08-20T16:51:19.326Z,23.12
2018-08-20T16:53:46.653Z,23.21
2018-08-20T16:56:14.293Z,23.12
2018-08-20T16:58:41.836Z,23.35
2018-08-20T17:01:16.800Z,23.29
2018-08-20T17:03:44.225Z,22.86
2018-08-20T17:06:11.584Z,22.97
2018-08-20T17:08:41.590Z,22.97
2018-08-20T17:11:09.670Z,23.00
2018-08-20T17:13:38.146Z,22.93
2018-08-20T17:16:08.174Z,22.79
2018-08-20T17:18:35.577Z,22.72
2018-08-20T17:21:03.121Z,22.62
2018-08-20T17:23:35.069Z,22.47
2018-08-20T17:26:02.520Z,22.69
2018-08-20T17:28:29.963Z,22.87
2018-08-20T17:30:59.378Z,22.58
2018-08-20T17:33:30.617Z,22.57
2018-08-20T17:35:58.024Z,22.70
2018-08-20T17:38:25.573Z,22.61
2018-08-20T17:40:53.154Z,22.47
2018-08-20T17:43:20.705Z,22.22
2018-08-20T17:45:48.016Z,22.02
2018-08-20T17:48:21.640Z,22.42
2018-08-20T17:50:49.110Z,22.12
2018-08-20T17:53:16.586Z,22.16
2018-08-20T17:55:44.041Z,22.20
2018-08-20T17:58:11.563Z,21.82
2018-08-20T18:00:44.910Z,22.13
2018-08-20T18:03:29.751Z,21.85
2018-08-20T18:05:58.503Z,22.06
2018-08-20T18:08:27.020Z,21.75
2018-08-20T18:10:54.660Z,21.80
2018-08-20T18:13:37.522Z,21.63
2018-08-20T18:16:07.998Z,21.62
2018-08-20T18:18:36.321Z,21.68
2018-08-20T18:21:03.851Z,21.58
2018-08-20T18:23:32.503Z,21.62
2018-08-20T18:25:59.950Z,21.61
2018-08-20T18:28:27.957Z,21.41
2018-08-20T18:31:04.866Z,21.02
2018-08-20T18:33:33.006Z,21.26
2018-08-20T18:36:05.097Z,21.06
2018-08-20T18:38:36.759Z,20.98
2018-08-20T18:41:04.313Z,21.03
2018-08-20T18:43:31.731Z,20.96
2018-08-20T18:45:59.182Z,20.90
2018-08-20T18:48:34.192Z,20.71
2018-08-20T18:51:01.705Z,20.78
2018-08-20T18:53:31.951Z,20.90
2018-08-20T18:56:03.044Z,20.65
2018-08-20T18:58:31.405Z,20.74
2018-08-20T19:00:59.314Z,20.57
2018-08-20T19:03:30.631Z,20.63
2018-08-20T19:05:57.980Z,20.51
2018-08-20T19:08:25.632Z,20.51
2018-08-20T19:10:53.222Z,20.65
2018-08-20T19:13:20.638Z,20.44
2018-08-20T19:15:49.201Z,20.26
2018-08-20T19:18:24.124Z,20.48
2018-08-20T19:20:51.488Z,20.44
2018-08-20T19:23:18.991Z,20.29
2018-08-20T19:25:46.888Z,20.54
2018-08-20T19:28:20.165Z,20.60
2018-08-20T19:30:47.608Z,20.68
2018-08-20T19:33:31.363Z,20.37
2018-08-20T19:35:59.477Z,20.72
2018-08-20T19:38:26.779Z,20.90
2018-08-20T19:41:04.216Z,20.46
2018-08-20T19:43:37.336Z,20.38
2018-08-20T19:46:04.935Z,20.62
2018-08-20T19:48:32.264Z,20.59
2018-08-20T19:50:59.809Z,20.58
2018-08-20T19:53:27.445Z,20.55
2018-08-20T19:55:54.900Z,20.45
2018-08-20T19:58:32.867Z,20.32
2018-08-20T20:01:09.114Z,20.40
2018-08-20T20:03:38.942Z,20.41
2018-08-20T20:06:06.317Z,20.35
2018-08-20T20:08:33.755Z,20.42
2018-08-20T20:11:01.149Z,20.31
2018-08-20T20:13:28.593Z,20.15
2018-08-20T20:15:56.828Z,20.32
2018-08-20T20:18:24.303Z,19.96
2018-08-20T20:20:51.796Z,20.01
2018-08-20T20:23:19.214Z,19.83
2018-08-20T20:25:47.144Z,19.78
2018-08-20T20:28:15.329Z,19.63
2018-08-20T20:30:42.672Z,19.50
2018-08-20T20:33:10.075Z,19.95
2018-08-20T20:35:37.513Z,20.02
2018-08-20T20:38:04.977Z,20.07
2018-08-20T20:40:32.552Z,20.09
2018-08-20T20:43:00.803Z,20.10
2018-08-20T20:45:28.122Z,20.05
2018-08-20T20:47:55.436Z,19.84
2018-08-20T20:50:22.756Z,19.68
2018-08-20T20:52:50.220Z,20.01
2018-08-20T20:55:17.657Z,20.06
2018-08-20T20:57:45.102Z,20.00
2018-08-20T21:00:12.524Z,19.93
2018-08-20T21:02:39.853Z,19.85
2018-08-20T21:05:09.094Z,19.78
2018-08-20T21:07:36.530Z,19.78
2018-08-20T21:10:04.533Z,19.79
2018-08-20T21:12:32.507Z,19.90
2018-08-20T21:15:00.368Z,19.82
2018-08-20T21:17:27.924Z,19.78
2018-08-20T21:19:55.305Z,19.70
2018-08-20T21:22:22.546Z,19.69
2018-08-20T21:24:49.826Z,19.66
2018-08-20T21:27:22.572Z,19.67
2018-08-20T21:29:49.943Z,19.71
2018-08-20T21:32:17.235Z,19.62
2018-08-20T21:34:44.579Z,19.59
2018-08-20T21:37:12.461Z,19.58
2018-08-20T21:39:39.983Z,19.55
2018-08-20T21:42:07.293Z,19.61
2018-08-20T21:44:34.629Z,19.59
2018-08-20T21:47:13.337Z,19.50
2018-08-20T21:49:40.629Z,19.52
2018-08-20T21:52:08.049Z,19.57
2018-08-20T21:54:37.267Z,19.63
2018-08-20T21:57:04.678Z,19.68
2018-08-20T21:59:32.221Z,19.67
2018-08-20T22:01:59.458Z,19.54
2018-08-20T22:04:28.712Z,19.56
2018-08-20T22:06:57.078Z,19.57
2018-08-20T22:09:24.394Z,19.57
2018-08-20T22:11:54.036Z,19.58
2018-08-20T22:14:21.406Z,19.65
2018-08-20T22:16:48.749Z,19.63
2018-08-20T22:19:16.287Z,19.59
2018-08-20T22:21:43.645Z,19.56
2018-08-20T22:24:11.113Z,19.44
2018-08-20T22:26:44.212Z,19.49
2018-08-20T22:29:11.470Z,19.55
2018-08-20T22:31:43.330Z,19.59
2018-08-20T22:34:11.116Z,19.63
2018-08-20T22:36:38.611Z,19.52
2018-08-20T22:39:07.587Z,19.49
2018-08-20T22:41:34.951Z,19.49
2018-08-20T22:44:02.312Z,19.48
2018-08-20T22:46:29.894Z,19.56
2018-08-20T22:48:59.910Z,19.50
2018-08-20T22:51:28.324Z,19.35
2018-08-20T22:53:58.036Z,19.44
2018-08-20T22:56:31.738Z,19.38
2018-08-20T22:59:01.497Z,19.17
2018-08-20T23:01:28.960Z,19.35
2018-08-20T23:03:56.330Z,19.30
2018-08-20T23:06:23.839Z,19.25
2018-08-20T23:08:51.334Z,19.13
2018-08-20T23:11:35.646Z,19.08
2018-08-20T23:14:03.261Z,19.10
2018-08-20T23:16:30.833Z,19.06
2018-08-20T23:18:58.497Z,19.13
2018-08-20T23:21:29.369Z,19.22
2018-08-20T23:23:57.542Z,19.18
2018-08-20T23:26:25.769Z,19.12
2018-08-20T23:28:53.785Z,19.14
2018-08-20T23:31:21.112Z,19.16
2018-08-20T23:33:48.607Z,19.08
2018-08-20T23:36:16.002Z,19.13
2018-08-20T23:38:43.512Z,19.09
2018-08-20T23:41:10.871Z,18.90
2018-08-20T23:43:40.025Z,18.70
2018-08-20T23:46:12.829Z,18.75
2018-08-20T23:48:40.637Z,18.88
2018-08-20T23:51:07.959Z,18.89
2018-08-20T23:53:35.226Z,18.80
2018-08-20T23:56:02.974Z,18.66
2018-08-20T23:58:30.392Z,18.38
